Terminal Aerodrome Forecast
Issued by NWS Raleigh/Durham, NC

Home | Current Version | Previous Version | Text Only | Print | Product List | Glossary On
Versions: 1 2 3 4 5 6 7 8 9 10 11 12 13 14 15 16 17 18 19 20 21 22 23 24 25 26 27 28 29 30 31 32 33 34 35 36 37 38 39 40 41 42 43 44 45 46 47 48
781
FTUS42 KRAH 060522
TAFGSO
TAF
KGSO 060522Z 0606/0706 29004KT P6SM -RA FEW005 SCT045 OVC060
     FM061500 32010KT P6SM BKN040
     FM061900 31010G15KT P6SM VCSH BKN050
      TEMPO 0619/0622 5SM -SHRA BR
     FM062200 28006KT P6SM BKN090=

USA.gov is the U.S. government's official web portal to all federal, state and local government web resources and services.